Aeroporto :
LOGIN :

Iscrizione | Disclaimer

   EN    FR    IT 

 










Sommario :    VFR   VFR Marginale   IFR   IFR Intensivo   IFR Molto Intensivo
Visibilità : 
Base nubi : 
>= 8 km
>= 3000ft
5 / 8 km
1000 / 3000 ft
1500m / 5 km
500 / 1000 ft
800 / 1500m
200 / 500 ft
< 800m
< 200 ft
Simboli :   Temporali  Nebbia  Neve Forte  Precipitazioni Forti  Vento > 20 kt
SIGMETs :   Varie  Temporali  Ghiacco  Turbolenza  Onda orograficha  Ceneri Vulcaniche







- Altitudine del aeroporto : 401 ft
- Codice IATA : LEQ
- Carte del aeroporto


EGHC - Land's End

ULTIMO METAR :
  • 130920Z 12028G38KT 8000 -RA SCT005 BKN008 07/06 Q1004

METARs OBSOLETI :
  • 130850Z 12027KT 6000 -RA FEW004 SCT006 BKN010 07/06 Q1003
  • 130820Z 12029KT 6000 -RA FEW004 SCT006 BKN010 07/06 Q1003
  • 130750Z 12028KT 6000 -SHRA SCT006 BKN010 07/06 Q1003 RESHRA
  • 130720Z 12027G37KT 6000 SHRA SCT008 BKN012 07/07 Q1003

TAF TAF EGHC
Valido dal 13 a 09 ore il 13 a 18 ore UTC


130804Z 1309/1318 12025KT 9999 BKN015
TEMPO 1309/1318 7000 -RA SCT004 BKN009
TEMPO 1309/1315 12028G38KT
PROB30
TEMPO 1309/1312 4500 RA
Nessun NOTAM noto per questo aeroporto.



MetMap, La meteo Aeronautica in un colpo d'occhio ! - Copyright ORBIFLY Dicembre 2007 - Disclaimer

ORBIFLY MET'MAP TEAM :

Programmazione e sviluppo : Alexandra Zaïnal
Concezione e sviluppo : Baudouin d'Aumeries
Co-Programmazione e sviluppo : Marc-Olivier Méhu
Supporto tecnico e logistico : Manuel Goepfert
Aiuto per la traduzione : Arnaldo La Scala

Contatto : metmap@orbifly.com




FONTI E CREDITI :

   NOAA